Time;durP1;ratioP1;P1;durP2;ratioP2;P2;SDS_P1;SDS_P2;PMS_P1;PMS_P2;Temp;Humidity;BMP_temperature;BMP_pressure;BME280_temperature;BME280_humidity;BME280_pressure;Samples;Min_cycle;Max_cycle;Signal;HPM_P1;HPM_P2
2019/10/18 00:00:15;;;;;;;5.55;3.35;;;;;;;11.56;91.33398;95128.34;;;;
2019/10/18 00:01:51;;;;;;;5.55;3.35;;;;;;;11.56;91.33398;95128.34;;;;
2019/10/18 00:02:53;;;;;;;5.55;3.35;;;;;;;11.56;91.33398;95128.34;;;;
2019/10/18 00:03:54;;;;;;;5.55;3.35;;;;;;;11.56;91.33398;95128.34;;;;
2019/10/18 00:04:55;;;;;;;5.55;3.35;;;;;;;11.56;91.33398;95128.34;;;;
2019/10/18 00:05:56;;;;;;;5.55;3.35;;;;;;;11.56;91.33398;95128.34;;;;
2019/10/18 00:07:06;;;;;;;5.55;3.35;;;;;;;11.56;91.33398;95128.34;;;;
2019/10/18 00:08:07;;;;;;;5.55;3.35;;;;;;;11.56;91.33398;95128.34;;;;
2019/10/18 00:09:08;;;;;;;4.05;3.45;;;;;;;11.23;89.89844;95121.65;;;;
2019/10/18 00:10:30;;;;;;;4.05;3.45;;;;;;;11.23;89.89844;95121.65;;;;
2019/10/18 00:11:31;;;;;;;4.05;3.45;;;;;;;11.23;89.89844;95121.65;;;;
2019/10/18 00:12:32;;;;;;;6.2;4;;;;;;;11.21;90.76953;95129.21;;;;
2019/10/18 00:13:34;;;;;;;6.2;4;;;;;;;11.21;90.76953;95129.21;;;;
2019/10/18 00:14:40;;;;;;;5.200001;3.75;;;;;;;11.25;90.9707;95130.75;;;;
2019/10/18 00:15:41;;;;;;;5.200001;3.75;;;;;;;11.25;90.9707;95130.75;;;;
2019/10/18 00:16:42;;;;;;;5.200001;3.75;;;;;;;11.25;90.9707;95130.75;;;;
2019/10/18 00:17:54;;;;;;;7.550001;4;;;;;;;11.28;91.22168;95134.31;;;;
2019/10/18 00:18:55;;;;;;;7.550001;4;;;;;;;11.28;91.22168;95134.31;;;;
2019/10/18 00:20:05;;;;;;;4.5;3.85;;;;;;;11.3;91.30078;95133.53;;;;
2019/10/18 00:21:06;;;;;;;4.5;3.85;;;;;;;11.3;91.30078;95133.53;;;;
2019/10/18 00:22:07;;;;;;;4.5;3.85;;;;;;;11.3;91.30078;95133.53;;;;
2019/10/18 00:23:08;;;;;;;5.7;3.6;;;;;;;11.32;91.37891;95129.65;;;;
2019/10/18 00:24:26;;;;;;;5.7;3.6;;;;;;;11.32;91.37891;95129.65;;;;
2019/10/18 00:25:27;;;;;;;5.2;3.65;;;;;;;11.34;91.33008;95130.64;;;;
2019/10/18 00:26:29;;;;;;;5.2;3.65;;;;;;;11.34;91.33008;95130.64;;;;
2019/10/18 00:27:55;;;;;;;5.350001;3.299999;;;;;;;11.36;91.44043;95129.46;;;;
2019/10/18 00:29:00;;;;;;;5.350001;3.299999;;;;;;;11.36;91.44043;95129.46;;;;
2019/10/18 00:30:02;;;;;;;5.350001;3.299999;;;;;;;11.36;91.44043;95129.46;;;;
2019/10/18 00:31:24;;;;;;;5.350001;3.299999;;;;;;;11.36;91.44043;95129.46;;;;
2019/10/18 00:33:30;;;;;;;5.350001;3.299999;;;;;;;11.36;91.44043;95129.46;;;;
2019/10/18 00:34:39;;;;;;;5.350001;3.299999;;;;;;;11.36;91.44043;95129.46;;;;
2019/10/18 00:35:52;;;;;;;5.350001;3.299999;;;;;;;11.36;91.44043;95129.46;;;;
2019/10/18 00:37:05;;;;;;;5.350001;3.299999;;;;;;;11.36;91.44043;95129.46;;;;
2019/10/18 00:38:06;;;;;;;5.350001;3.299999;;;;;;;11.36;91.44043;95129.46;;;;
2019/10/18 00:39:13;;;;;;;5.199999;3.3;;;;;;;11.06;90.15332;95111.22;;;;
2019/10/18 00:40:23;;;;;;;5.199999;3.3;;;;;;;11.06;90.15332;95111.22;;;;
2019/10/18 00:41:24;;;;;;;6;3.5;;;;;;;11.06;90.95313;95107.58;;;;
2019/10/18 00:42:25;;;;;;;6;3.5;;;;;;;11.06;90.95313;95107.58;;;;
2019/10/18 00:43:26;;;;;;;6;3.5;;;;;;;11.06;90.95313;95107.58;;;;
2019/10/18 00:44:28;;;;;;;6;3.5;;;;;;;11.06;90.95313;95107.58;;;;
2019/10/18 00:45:29;;;;;;;6;3.5;;;;;;;11.06;90.95313;95107.58;;;;
2019/10/18 00:46:30;;;;;;;6;3.5;;;;;;;11.06;90.95313;95107.58;;;;
2019/10/18 00:47:31;;;;;;;6;3.5;;;;;;;11.06;90.95313;95107.58;;;;
2019/10/18 00:48:33;;;;;;;6;3.5;;;;;;;11.06;90.95313;95107.58;;;;
2019/10/18 00:49:34;;;;;;;6;3.5;;;;;;;11.06;90.95313;95107.58;;;;
2019/10/18 00:50:35;;;;;;;6;3.5;;;;;;;11.06;90.95313;95107.58;;;;
2019/10/18 00:51:36;;;;;;;4.35;3.15;;;;;;;10.97;89.78223;95097.44;;;;
2019/10/18 00:52:37;;;;;;;4.35;3.15;;;;;;;10.97;89.78223;95097.44;;;;
2019/10/18 00:53:39;;;;;;;4.35;3.15;;;;;;;10.97;89.78223;95097.44;;;;
2019/10/18 00:54:40;;;;;;;5.5;3.400001;;;;;;;11.01;90.66406;95094.51;;;;
2019/10/18 00:55:41;;;;;;;5.5;3.400001;;;;;;;11.01;90.66406;95094.51;;;;
2019/10/18 00:56:42;;;;;;;5.5;3.400001;;;;;;;11.01;90.66406;95094.51;;;;
2019/10/18 00:57:43;;;;;;;5.5;3.55;;;;;;;11.09;91.04395;95095.06;;;;
2019/10/18 00:58:44;;;;;;;5.5;3.55;;;;;;;11.09;91.04395;95095.06;;;;
2019/10/18 00:59:45;;;;;;;5.9;3.6;;;;;;;11.17;91.27344;95100.09;;;;
2019/10/18 01:00:46;;;;;;;5.9;3.6;;;;;;;11.17;91.27344;95100.09;;;;
2019/10/18 01:01:48;;;;;;;5.9;3.6;;;;;;;11.17;91.27344;95100.09;;;;
2019/10/18 01:02:49;;;;;;;5.9;3.6;;;;;;;11.17;91.27344;95100.09;;;;
2019/10/18 01:03:50;;;;;;;5.9;3.6;;;;;;;11.17;91.27344;95100.09;;;;
2019/10/18 01:04:51;;;;;;;5.9;3.6;;;;;;;11.17;91.27344;95100.09;;;;
2019/10/18 01:05:53;;;;;;;5.9;3.6;;;;;;;11.17;91.27344;95100.09;;;;
2019/10/18 01:06:54;;;;;;;5.9;3.6;;;;;;;11.17;91.27344;95100.09;;;;
2019/10/18 01:07:55;;;;;;;5.9;3.6;;;;;;;11.17;91.27344;95100.09;;;;
2019/10/18 01:08:56;;;;;;;5.9;3.6;;;;;;;11.17;91.27344;95100.09;;;;
2019/10/18 01:09:58;;;;;;;5.9;3.6;;;;;;;11.17;91.27344;95100.09;;;;
2019/10/18 01:10:59;;;;;;;5.1;3.35;;;;;;;10.99;89.81836;95091.64;;;;
2019/10/18 01:12:00;;;;;;;5.1;3.35;;;;;;;10.99;89.81836;95091.64;;;;
2019/10/18 01:13:02;;;;;;;4.6;3.6;;;;;;;11.01;90.65332;95083.7;;;;
2019/10/18 01:14:03;;;;;;;4.6;3.6;;;;;;;11.01;90.65332;95083.7;;;;
2019/10/18 01:15:04;;;;;;;4.6;3.6;;;;;;;11.01;90.65332;95083.7;;;;
2019/10/18 01:16:06;;;;;;;5.05;3.65;;;;;;;11.09;91.02344;95086.02;;;;
2019/10/18 01:17:07;;;;;;;5.05;3.65;;;;;;;11.09;91.02344;95086.02;;;;
2019/10/18 01:18:08;;;;;;;4.699999;3.5;;;;;;;11.17;91.34766;95085.23;;;;
2019/10/18 01:19:09;;;;;;;4.699999;3.5;;;;;;;11.17;91.34766;95085.23;;;;
2019/10/18 01:20:10;;;;;;;4.699999;3.5;;;;;;;11.17;91.34766;95085.23;;;;
2019/10/18 01:21:12;;;;;;;4.699999;3.5;;;;;;;11.17;91.34766;95085.23;;;;
2019/10/18 01:22:13;;;;;;;4.699999;3.5;;;;;;;11.17;91.34766;95085.23;;;;
2019/10/18 01:23:15;;;;;;;4.699999;3.5;;;;;;;11.17;91.34766;95085.23;;;;
2019/10/18 01:24:16;;;;;;;4.699999;3.5;;;;;;;11.17;91.34766;95085.23;;;;
2019/10/18 01:25:17;;;;;;;4.699999;3.5;;;;;;;11.17;91.34766;95085.23;;;;
2019/10/18 01:26:18;;;;;;;4.699999;3.5;;;;;;;11.17;91.34766;95085.23;;;;
2019/10/18 01:27:19;;;;;;;4.699999;3.5;;;;;;;11.17;91.34766;95085.23;;;;
2019/10/18 01:28:20;;;;;;;4.699999;3.5;;;;;;;11.17;91.34766;95085.23;;;;
2019/10/18 01:29:22;;;;;;;6.049999;3.4;;;;;;;11.01;89.99316;95081.42;;;;
2019/10/18 01:30:23;;;;;;;6.049999;3.4;;;;;;;11.01;89.99316;95081.42;;;;
2019/10/18 01:31:24;;;;;;;4.400001;3.299999;;;;;;;11.03;90.84082;95081.58;;;;
2019/10/18 01:32:25;;;;;;;4.400001;3.299999;;;;;;;11.03;90.84082;95081.58;;;;
2019/10/18 01:33:27;;;;;;;4.400001;3.299999;;;;;;;11.03;90.84082;95081.58;;;;
2019/10/18 01:34:29;;;;;;;4.400001;3.299999;;;;;;;11.03;90.84082;95081.58;;;;
2019/10/18 01:35:30;;;;;;;4.400001;3.299999;;;;;;;11.03;90.84082;95081.58;;;;
2019/10/18 01:36:31;;;;;;;4.400001;3.299999;;;;;;;11.03;90.84082;95081.58;;;;
2019/10/18 01:37:32;;;;;;;4.400001;3.299999;;;;;;;11.03;90.84082;95081.58;;;;
2019/10/18 01:38:34;;;;;;;4.400001;3.299999;;;;;;;11.03;90.84082;95081.58;;;;
2019/10/18 01:39:35;;;;;;;4.400001;3.299999;;;;;;;11.03;90.84082;95081.58;;;;
2019/10/18 01:40:36;;;;;;;4.400001;3.299999;;;;;;;11.03;90.84082;95081.58;;;;
2019/10/18 01:41:37;;;;;;;4.400001;3.299999;;;;;;;11.03;90.84082;95081.58;;;;
2019/10/18 01:42:38;;;;;;;5.75;3.6;;;;;;;10.92;89.83691;95071.27;;;;
2019/10/18 01:43:40;;;;;;;5.75;3.6;;;;;;;10.92;89.83691;95071.27;;;;
2019/10/18 01:44:52;;;;;;;5.05;3.3;;;;;;;10.96;90.66699;95071.88;;;;
2019/10/18 01:45:53;;;;;;;5.05;3.3;;;;;;;10.96;90.66699;95071.88;;;;
2019/10/18 01:46:54;;;;;;;5.05;3.3;;;;;;;10.96;90.66699;95071.88;;;;
2019/10/18 01:47:55;;;;;;;5.649999;3.5;;;;;;;11.05;91.06836;95069.06;;;;
2019/10/18 01:48:57;;;;;;;5.649999;3.5;;;;;;;11.05;91.06836;95069.06;;;;
2019/10/18 01:49:58;;;;;;;4.75;3.55;;;;;;;11.15;91.32227;95069.23;;;;
2019/10/18 01:50:59;;;;;;;4.75;3.55;;;;;;;11.15;91.32227;95069.23;;;;
2019/10/18 01:52:01;;;;;;;4.75;3.55;;;;;;;11.15;91.32227;95069.23;;;;
2019/10/18 01:53:02;;;;;;;4.75;3.55;;;;;;;11.15;91.32227;95069.23;;;;
2019/10/18 01:54:03;;;;;;;4.75;3.55;;;;;;;11.15;91.32227;95069.23;;;;
2019/10/18 01:55:04;;;;;;;4.75;3.55;;;;;;;11.15;91.32227;95069.23;;;;
2019/10/18 01:56:06;;;;;;;4.75;3.55;;;;;;;11.15;91.32227;95069.23;;;;
2019/10/18 01:57:08;;;;;;;4.75;3.55;;;;;;;11.15;91.32227;95069.23;;;;
2019/10/18 01:58:09;;;;;;;4.75;3.55;;;;;;;11.15;91.32227;95069.23;;;;
2019/10/18 01:59:10;;;;;;;4.75;3.55;;;;;;;11.15;91.32227;95069.23;;;;
2019/10/18 02:00:11;;;;;;;4.75;3.55;;;;;;;11.15;91.32227;95069.23;;;;
2019/10/18 02:01:15;;;;;;;3.85;3.45;;;;;;;11.08;89.86914;95059.67;;;;
2019/10/18 02:02:17;;;;;;;3.85;3.45;;;;;;;11.08;89.86914;95059.67;;;;
2019/10/18 02:03:18;;;;;;;5.75;3.8;;;;;;;11.12;90.7002;95061.21;;;;
2019/10/18 02:04:19;;;;;;;5.75;3.8;;;;;;;11.12;90.7002;95061.21;;;;
2019/10/18 02:05:20;;;;;;;5.75;3.8;;;;;;;11.12;90.7002;95061.21;;;;
2019/10/18 02:06:22;;;;;;;5.75;3.8;;;;;;;11.12;90.7002;95061.21;;;;
2019/10/18 02:07:23;;;;;;;5.75;3.8;;;;;;;11.12;90.7002;95061.21;;;;
2019/10/18 02:08:24;;;;;;;5.75;3.8;;;;;;;11.12;90.7002;95061.21;;;;
2019/10/18 02:09:25;;;;;;;5.75;3.8;;;;;;;11.12;90.7002;95061.21;;;;
2019/10/18 02:10:27;;;;;;;5.75;3.8;;;;;;;11.12;90.7002;95061.21;;;;
2019/10/18 02:11:28;;;;;;;5.75;3.8;;;;;;;11.12;90.7002;95061.21;;;;
2019/10/18 02:12:29;;;;;;;5.75;3.8;;;;;;;11.12;90.7002;95061.21;;;;
2019/10/18 02:13:30;;;;;;;5.75;3.8;;;;;;;11.12;90.7002;95061.21;;;;
2019/10/18 02:14:31;;;;;;;5;3.3;;;;;;;11.1;89.74512;95053.08;;;;
2019/10/18 02:15:32;;;;;;;5;3.3;;;;;;;11.1;89.74512;95053.08;;;;
2019/10/18 02:16:34;;;;;;;4.8;2.95;;;;;;;11.15;90.56543;95060.33;;;;
2019/10/18 02:17:35;;;;;;;4.8;2.95;;;;;;;11.15;90.56543;95060.33;;;;
2019/10/18 02:18:36;;;;;;;4.8;2.95;;;;;;;11.15;90.56543;95060.33;;;;
2019/10/18 02:19:39;;;;;;;4.8;2.95;;;;;;;11.15;90.56543;95060.33;;;;
2019/10/18 02:21:11;;;;;;;4.8;2.95;;;;;;;11.15;90.56543;95060.33;;;;
2019/10/18 02:22:17;;;;;;;4.8;2.95;;;;;;;11.15;90.56543;95060.33;;;;
2019/10/18 02:23:22;;;;;;;4.8;2.95;;;;;;;11.15;90.56543;95060.33;;;;
2019/10/18 02:24:23;;;;;;;4.8;2.95;;;;;;;11.15;90.56543;95060.33;;;;
2019/10/18 02:25:24;;;;;;;4.8;2.95;;;;;;;11.15;90.56543;95060.33;;;;
2019/10/18 02:26:26;;;;;;;4.8;2.95;;;;;;;11.15;90.56543;95060.33;;;;
2019/10/18 02:27:27;;;;;;;3.95;3.2;;;;;;;11.13;89.53809;95061.92;;;;
2019/10/18 02:28:28;;;;;;;3.95;3.2;;;;;;;11.13;89.53809;95061.92;;;;
2019/10/18 02:29:29;;;;;;;3.95;3.2;;;;;;;11.13;89.53809;95061.92;;;;
2019/10/18 02:30:30;;;;;;;3.95;3.2;;;;;;;11.2;90.28711;95059.06;;;;
2019/10/18 02:31:32;;;;;;;3.95;3.2;;;;;;;11.2;90.28711;95059.06;;;;
2019/10/18 02:33:43;;;;;;;3.95;3.2;;;;;;;11.2;90.28711;95059.06;;;;
2019/10/18 02:34:53;;;;;;;3.95;3.2;;;;;;;11.2;90.28711;95059.06;;;;
2019/10/18 02:35:58;;;;;;;3.95;3.2;;;;;;;11.2;90.28711;95059.06;;;;
2019/10/18 02:36:59;;;;;;;3.95;3.2;;;;;;;11.2;90.28711;95059.06;;;;
2019/10/18 02:38:01;;;;;;;3.95;3.2;;;;;;;11.2;90.28711;95059.06;;;;
2019/10/18 02:39:02;;;;;;;3.95;3.2;;;;;;;11.2;90.28711;95059.06;;;;
2019/10/18 02:40:04;;;;;;;3.95;3.2;;;;;;;11.2;90.28711;95059.06;;;;
2019/10/18 02:41:05;;;;;;;5.2;2.95;;;;;;;11.21;89.11816;95041.77;;;;
2019/10/18 02:42:07;;;;;;;5.2;2.95;;;;;;;11.21;89.11816;95041.77;;;;
2019/10/18 02:43:08;;;;;;;4.599999;2.900001;;;;;;;11.26;89.99121;95039.17;;;;
2019/10/18 02:44:09;;;;;;;4.599999;2.900001;;;;;;;11.26;89.99121;95039.17;;;;
2019/10/18 02:45:12;;;;;;;4.599999;2.900001;;;;;;;11.26;89.99121;95039.17;;;;
2019/10/18 02:46:13;;;;;;;4.599999;2.900001;;;;;;;11.26;89.99121;95039.17;;;;
2019/10/18 02:47:18;;;;;;;4.599999;2.900001;;;;;;;11.26;89.99121;95039.17;;;;
2019/10/18 02:48:28;;;;;;;4.599999;2.900001;;;;;;;11.26;89.99121;95039.17;;;;
2019/10/18 02:49:34;;;;;;;4.599999;2.900001;;;;;;;11.26;89.99121;95039.17;;;;
2019/10/18 02:50:37;;;;;;;4.599999;2.900001;;;;;;;11.26;89.99121;95039.17;;;;
2019/10/18 02:51:57;;;;;;;4.599999;2.900001;;;;;;;11.26;89.99121;95039.17;;;;
2019/10/18 02:53:08;;;;;;;4.599999;2.900001;;;;;;;11.26;89.99121;95039.17;;;;
2019/10/18 02:54:09;;;;;;;3.55;2.75;;;;;;;11.23;89.01465;95036.41;;;;
2019/10/18 02:56:34;;;;;;;4.65;2.900001;;;;;;;11.27;89.67383;95029.99;;;;
2019/10/18 02:57:52;;;;;;;4.65;2.900001;;;;;;;11.27;89.67383;95029.99;;;;
2019/10/18 02:58:54;;;;;;;4.65;2.900001;;;;;;;11.27;89.67383;95029.99;;;;
2019/10/18 02:59:59;;;;;;;4.65;2.900001;;;;;;;11.27;89.67383;95029.99;;;;
2019/10/18 03:01:00;;;;;;;4.65;2.900001;;;;;;;11.27;89.67383;95029.99;;;;
2019/10/18 03:02:01;;;;;;;4.65;2.900001;;;;;;;11.27;89.67383;95029.99;;;;
2019/10/18 03:03:03;;;;;;;4.65;2.900001;;;;;;;11.27;89.67383;95029.99;;;;
2019/10/18 03:04:04;;;;;;;4.65;2.900001;;;;;;;11.27;89.67383;95029.99;;;;
2019/10/18 03:05:05;;;;;;;4.65;2.900001;;;;;;;11.27;89.67383;95029.99;;;;
2019/10/18 03:06:07;;;;;;;4.65;2.900001;;;;;;;11.27;89.67383;95029.99;;;;
2019/10/18 03:07:08;;;;;;;3.9;3.05;;;;;;;11.12;88.73828;95022.03;;;;
2019/10/18 03:08:09;;;;;;;3.9;3.05;;;;;;;11.12;88.73828;95022.03;;;;
2019/10/18 03:09:10;;;;;;;3.9;3.05;;;;;;;11.12;88.73828;95022.03;;;;
2019/10/18 03:10:11;;;;;;;5.25;2.8;;;;;;;11.12;89.61035;95025.29;;;;
2019/10/18 03:11:12;;;;;;;5.25;2.8;;;;;;;11.12;89.61035;95025.29;;;;
2019/10/18 03:12:13;;;;;;;5.25;2.8;;;;;;;11.12;89.61035;95025.29;;;;
2019/10/18 03:13:15;;;;;;;5.25;2.8;;;;;;;11.12;89.61035;95025.29;;;;
2019/10/18 03:14:16;;;;;;;5.25;2.8;;;;;;;11.12;89.61035;95025.29;;;;
2019/10/18 03:15:17;;;;;;;5.25;2.8;;;;;;;11.12;89.61035;95025.29;;;;
2019/10/18 03:16:18;;;;;;;5.25;2.8;;;;;;;11.12;89.61035;95025.29;;;;
2019/10/18 03:17:19;;;;;;;5.25;2.8;;;;;;;11.12;89.61035;95025.29;;;;
2019/10/18 03:18:21;;;;;;;5.25;2.8;;;;;;;11.12;89.61035;95025.29;;;;
2019/10/18 03:19:22;;;;;;;5.25;2.8;;;;;;;11.12;89.61035;95025.29;;;;
2019/10/18 03:20:23;;;;;;;4.600001;2.900001;;;;;;;10.77;88.96582;95024.97;;;;
2019/10/18 03:21:24;;;;;;;4.600001;2.900001;;;;;;;10.77;88.96582;95024.97;;;;
2019/10/18 03:22:25;;;;;;;4.600001;2.900001;;;;;;;10.77;88.96582;95024.97;;;;
2019/10/18 03:23:26;;;;;;;4.1;3;;;;;;;10.74;89.875;95025.02;;;;
2019/10/18 03:24:27;;;;;;;4.1;3;;;;;;;10.74;89.875;95025.02;;;;
2019/10/18 03:25:29;;;;;;;4.1;3;;;;;;;10.74;89.875;95025.02;;;;
2019/10/18 03:26:30;;;;;;;4.1;3;;;;;;;10.74;89.875;95025.02;;;;
2019/10/18 03:27:31;;;;;;;4.1;3;;;;;;;10.74;89.875;95025.02;;;;
2019/10/18 03:28:32;;;;;;;4.1;3;;;;;;;10.74;89.875;95025.02;;;;
2019/10/18 03:29:34;;;;;;;4.1;3;;;;;;;10.74;89.875;95025.02;;;;
2019/10/18 03:30:36;;;;;;;4.1;3;;;;;;;10.74;89.875;95025.02;;;;
2019/10/18 03:31:40;;;;;;;4.1;3;;;;;;;10.74;89.875;95025.02;;;;
2019/10/18 03:33:16;;;;;;;4.1;3;;;;;;;10.74;89.875;95025.02;;;;
2019/10/18 03:34:20;;;;;;;3.9;2.750001;;;;;;;10.56;89.41016;95020.37;;;;
2019/10/18 03:35:25;;;;;;;3.9;2.750001;;;;;;;10.56;89.41016;95020.37;;;;
2019/10/18 03:36:27;;;;;;;4.85;3.2;;;;;;;10.6;90.25;95023.69;;;;
2019/10/18 03:37:51;;;;;;;4.85;3.2;;;;;;;10.6;90.25;95023.69;;;;
2019/10/18 03:38:53;;;;;;;4.85;3.2;;;;;;;10.6;90.25;95023.69;;;;
2019/10/18 03:40:25;;;;;;;4.85;3.2;;;;;;;10.6;90.25;95023.69;;;;
2019/10/18 03:44:07;;;;;;;4.85;3.2;;;;;;;10.6;90.25;95023.69;;;;
2019/10/18 03:45:10;;;;;;;4.85;3.2;;;;;;;10.6;90.25;95023.69;;;;
2019/10/18 03:49:20;;;;;;;5.05;3.2;;;;;;;10.74;89.92773;95012.07;;;;
2019/10/18 03:51:35;;;;;;;5.05;3.2;;;;;;;10.74;89.92773;95012.07;;;;
2019/10/18 03:52:47;;;;;;;5.05;3.2;;;;;;;10.74;89.92773;95012.07;;;;
2019/10/18 03:53:54;;;;;;;5.05;3.2;;;;;;;10.74;89.92773;95012.07;;;;
2019/10/18 03:54:58;;;;;;;5.05;3.2;;;;;;;10.74;89.92773;95012.07;;;;
2019/10/18 03:56:01;;;;;;;5.05;3.2;;;;;;;10.74;89.92773;95012.07;;;;
2019/10/18 03:57:02;;;;;;;5.05;3.2;;;;;;;10.74;89.92773;95012.07;;;;
2019/10/18 03:58:03;;;;;;;5.05;3.2;;;;;;;10.74;89.92773;95012.07;;;;
2019/10/18 03:59:07;;;;;;;5.05;3.2;;;;;;;10.74;89.92773;95012.07;;;;
2019/10/18 04:00:10;;;;;;;3.65;2.6;;;;;;;10.76;88.84473;95016.56;;;;
2019/10/18 04:01:11;;;;;;;3.65;2.6;;;;;;;10.76;88.84473;95016.56;;;;
2019/10/18 04:02:13;;;;;;;3.65;2.6;;;;;;;10.76;88.84473;95016.56;;;;
2019/10/18 04:03:15;;;;;;;5.099999;3.1;;;;;;;10.82;89.59375;95022.35;;;;
2019/10/18 04:04:30;;;;;;;5.099999;3.1;;;;;;;10.82;89.59375;95022.35;;;;
2019/10/18 04:05:32;;;;;;;5.099999;3.1;;;;;;;10.82;89.59375;95022.35;;;;
2019/10/18 04:06:33;;;;;;;5.099999;3.1;;;;;;;10.82;89.59375;95022.35;;;;
2019/10/18 04:07:34;;;;;;;5.099999;3.1;;;;;;;10.82;89.59375;95022.35;;;;
2019/10/18 04:08:36;;;;;;;5.099999;3.1;;;;;;;10.82;89.59375;95022.35;;;;
2019/10/18 04:09:37;;;;;;;5.099999;3.1;;;;;;;10.82;89.59375;95022.35;;;;
2019/10/18 04:10:38;;;;;;;5.099999;3.1;;;;;;;10.82;89.59375;95022.35;;;;
2019/10/18 04:11:39;;;;;;;5.099999;3.1;;;;;;;10.82;89.59375;95022.35;;;;
2019/10/18 04:12:40;;;;;;;5.099999;3.1;;;;;;;10.82;89.59375;95022.35;;;;
2019/10/18 04:13:41;;;;;;;4.399999;2.8;;;;;;;10.78;88.57129;95022.13;;;;
2019/10/18 04:14:43;;;;;;;4.399999;2.8;;;;;;;10.78;88.57129;95022.13;;;;
2019/10/18 04:15:44;;;;;;;4.399999;2.8;;;;;;;10.78;88.57129;95022.13;;;;
2019/10/18 04:16:45;;;;;;;4.399999;2.8;;;;;;;10.78;88.57129;95022.13;;;;
2019/10/18 04:17:46;;;;;;;4.399999;2.8;;;;;;;10.78;88.57129;95022.13;;;;
2019/10/18 04:18:48;;;;;;;4.399999;2.8;;;;;;;10.78;88.57129;95022.13;;;;
2019/10/18 04:19:49;;;;;;;4.399999;2.8;;;;;;;10.78;88.57129;95022.13;;;;
2019/10/18 04:20:50;;;;;;;4.399999;2.8;;;;;;;10.78;88.57129;95022.13;;;;
2019/10/18 04:21:51;;;;;;;4.399999;2.8;;;;;;;10.78;88.57129;95022.13;;;;
2019/10/18 04:22:52;;;;;;;4.399999;2.8;;;;;;;10.78;88.57129;95022.13;;;;
2019/10/18 04:23:53;;;;;;;3.45;2.85;;;;;;;10.8;88.31055;95016.37;;;;
2019/10/18 04:24:55;;;;;;;3.45;2.85;;;;;;;10.8;88.31055;95016.37;;;;
2019/10/18 04:25:56;;;;;;;3.45;2.85;;;;;;;10.8;88.31055;95016.37;;;;
2019/10/18 04:26:58;;;;;;;3.45;2.85;;;;;;;10.8;88.31055;95016.37;;;;
2019/10/18 04:27:59;;;;;;;3.45;2.85;;;;;;;10.8;88.31055;95016.37;;;;
2019/10/18 04:29:00;;;;;;;3.45;2.85;;;;;;;10.8;88.31055;95016.37;;;;
2019/10/18 04:30:01;;;;;;;3.45;2.85;;;;;;;10.8;88.31055;95016.37;;;;
2019/10/18 04:31:03;;;;;;;3.45;2.85;;;;;;;10.8;88.31055;95016.37;;;;
2019/10/18 04:32:05;;;;;;;3.45;2.85;;;;;;;10.8;88.31055;95016.37;;;;
2019/10/18 04:33:07;;;;;;;3.45;2.85;;;;;;;10.8;88.31055;95016.37;;;;
2019/10/18 04:34:08;;;;;;;3.45;2.85;;;;;;;10.8;88.31055;95016.37;;;;
2019/10/18 04:35:09;;;;;;;3.9;2.900001;;;;;;;10.79;88.08105;95010.8;;;;
2019/10/18 04:36:10;;;;;;;3.9;2.900001;;;;;;;10.79;88.08105;95010.8;;;;
2019/10/18 04:37:12;;;;;;;3.9;2.900001;;;;;;;10.79;88.08105;95010.8;;;;
2019/10/18 04:38:13;;;;;;;3.9;2.900001;;;;;;;10.79;88.08105;95010.8;;;;
2019/10/18 04:39:14;;;;;;;3.9;2.900001;;;;;;;10.79;88.08105;95010.8;;;;
2019/10/18 04:40:15;;;;;;;3.9;2.900001;;;;;;;10.79;88.08105;95010.8;;;;
2019/10/18 04:41:16;;;;;;;3.9;2.900001;;;;;;;10.79;88.08105;95010.8;;;;
2019/10/18 04:42:18;;;;;;;3.9;2.900001;;;;;;;10.79;88.08105;95010.8;;;;
2019/10/18 04:43:19;;;;;;;3.9;2.900001;;;;;;;10.79;88.08105;95010.8;;;;
2019/10/18 04:44:20;;;;;;;3.9;2.900001;;;;;;;10.79;88.08105;95010.8;;;;
2019/10/18 04:45:21;;;;;;;4.349999;3.05;;;;;;;10.88;87.91016;94999.36;;;;
2019/10/18 04:46:23;;;;;;;4.349999;3.05;;;;;;;10.88;87.91016;94999.36;;;;
2019/10/18 04:47:24;;;;;;;4.349999;3.05;;;;;;;10.88;87.91016;94999.36;;;;
2019/10/18 04:48:25;;;;;;;4.349999;3.05;;;;;;;10.88;87.91016;94999.36;;;;
2019/10/18 04:49:26;;;;;;;4.349999;3.05;;;;;;;10.88;87.91016;94999.36;;;;
2019/10/18 04:50:27;;;;;;;4.349999;3.05;;;;;;;10.88;87.91016;94999.36;;;;
2019/10/18 04:51:28;;;;;;;4.349999;3.05;;;;;;;10.88;87.91016;94999.36;;;;
2019/10/18 04:52:30;;;;;;;4.349999;3.05;;;;;;;10.88;87.91016;94999.36;;;;
2019/10/18 04:53:31;;;;;;;4.349999;3.05;;;;;;;10.88;87.91016;94999.36;;;;
2019/10/18 04:54:33;;;;;;;4.349999;3.05;;;;;;;10.88;87.91016;94999.36;;;;
2019/10/18 04:55:34;;;;;;;4.3;2.85;;;;;;;10.96;87.56445;95008.81;;;;
2019/10/18 04:56:36;;;;;;;4.3;2.85;;;;;;;10.96;87.56445;95008.81;;;;
2019/10/18 04:57:37;;;;;;;4.3;2.85;;;;;;;10.96;87.56445;95008.81;;;;
2019/10/18 04:58:39;;;;;;;3.75;2.7;;;;;;;11.06;88.34961;95013.58;;;;
2019/10/18 04:59:40;;;;;;;3.75;2.7;;;;;;;11.06;88.34961;95013.58;;;;
2019/10/18 05:00:41;;;;;;;3.75;2.7;;;;;;;11.06;88.34961;95013.58;;;;
2019/10/18 05:01:42;;;;;;;3.75;2.7;;;;;;;11.06;88.34961;95013.58;;;;
2019/10/18 05:02:43;;;;;;;3.75;2.7;;;;;;;11.06;88.34961;95013.58;;;;
2019/10/18 05:03:44;;;;;;;3.75;2.7;;;;;;;11.06;88.34961;95013.58;;;;
2019/10/18 05:04:45;;;;;;;3.75;2.7;;;;;;;11.06;88.34961;95013.58;;;;
2019/10/18 05:05:46;;;;;;;3.75;2.7;;;;;;;11.06;88.34961;95013.58;;;;
2019/10/18 05:06:47;;;;;;;3.75;2.7;;;;;;;11.06;88.34961;95013.58;;;;
2019/10/18 05:07:49;;;;;;;3.75;2.7;;;;;;;11.06;88.34961;95013.58;;;;
2019/10/18 05:08:50;;;;;;;4;2.75;;;;;;;11.2;87.41895;95025.69;;;;
2019/10/18 05:09:51;;;;;;;4;2.75;;;;;;;11.2;87.41895;95025.69;;;;
2019/10/18 05:10:52;;;;;;;4;2.75;;;;;;;11.2;87.41895;95025.69;;;;
2019/10/18 05:11:53;;;;;;;4;2.75;;;;;;;11.2;87.41895;95025.69;;;;
2019/10/18 05:12:54;;;;;;;4;2.75;;;;;;;11.2;87.41895;95025.69;;;;
2019/10/18 05:13:56;;;;;;;4;2.75;;;;;;;11.2;87.41895;95025.69;;;;
2019/10/18 05:14:57;;;;;;;4;2.75;;;;;;;11.2;87.41895;95025.69;;;;
2019/10/18 05:15:58;;;;;;;4;2.75;;;;;;;11.2;87.41895;95025.69;;;;
2019/10/18 05:16:59;;;;;;;4;2.75;;;;;;;11.2;87.41895;95025.69;;;;
2019/10/18 05:18:00;;;;;;;4;2.75;;;;;;;11.2;87.41895;95025.69;;;;
2019/10/18 05:19:01;;;;;;;4;2.75;;;;;;;11.2;87.41895;95025.69;;;;
2019/10/18 05:20:02;;;;;;;4.65;2.75;;;;;;;11.27;86.99707;95018.64;;;;
2019/10/18 05:21:04;;;;;;;4.65;2.75;;;;;;;11.27;86.99707;95018.64;;;;
2019/10/18 05:22:05;;;;;;;4.65;2.75;;;;;;;11.27;86.99707;95018.64;;;;
2019/10/18 05:23:06;;;;;;;4.65;2.75;;;;;;;11.27;86.99707;95018.64;;;;
2019/10/18 05:24:07;;;;;;;4.65;2.75;;;;;;;11.27;86.99707;95018.64;;;;
2019/10/18 05:25:08;;;;;;;4.65;2.75;;;;;;;11.27;86.99707;95018.64;;;;
2019/10/18 05:26:10;;;;;;;4.65;2.75;;;;;;;11.27;86.99707;95018.64;;;;
2019/10/18 05:27:11;;;;;;;4.65;2.75;;;;;;;11.27;86.99707;95018.64;;;;
2019/10/18 05:28:12;;;;;;;4.65;2.75;;;;;;;11.27;86.99707;95018.64;;;;
2019/10/18 05:29:13;;;;;;;4.65;2.75;;;;;;;11.27;86.99707;95018.64;;;;
2019/10/18 05:30:14;;;;;;;7.15;3.15;;;;;;;11.22;86.69727;95027.62;;;;
2019/10/18 05:31:15;;;;;;;7.15;3.15;;;;;;;11.22;86.69727;95027.62;;;;
2019/10/18 05:32:16;;;;;;;7.15;3.15;;;;;;;11.22;86.69727;95027.62;;;;
2019/10/18 05:33:18;;;;;;;7.15;3.15;;;;;;;11.22;86.69727;95027.62;;;;
2019/10/18 05:34:19;;;;;;;7.15;3.15;;;;;;;11.22;86.69727;95027.62;;;;
2019/10/18 05:35:20;;;;;;;7.15;3.15;;;;;;;11.22;86.69727;95027.62;;;;
2019/10/18 05:36:21;;;;;;;7.15;3.15;;;;;;;11.22;86.69727;95027.62;;;;
2019/10/18 05:37:22;;;;;;;7.15;3.15;;;;;;;11.22;86.69727;95027.62;;;;
2019/10/18 05:38:23;;;;;;;7.15;3.15;;;;;;;11.22;86.69727;95027.62;;;;
2019/10/18 05:39:24;;;;;;;7.15;3.15;;;;;;;11.22;86.69727;95027.62;;;;
2019/10/18 05:40:25;;;;;;;7.15;3.15;;;;;;;11.22;86.69727;95027.62;;;;
2019/10/18 05:41:26;;;;;;;7.7;3.3;;;;;;;11.22;86.80371;95039.78;;;;
2019/10/18 05:42:27;;;;;;;7.7;3.3;;;;;;;11.22;86.80371;95039.78;;;;
2019/10/18 05:43:29;;;;;;;7.7;3.3;;;;;;;11.22;86.80371;95039.78;;;;
2019/10/18 05:44:30;;;;;;;7.7;3.3;;;;;;;11.22;86.80371;95039.78;;;;
2019/10/18 05:45:31;;;;;;;7.7;3.3;;;;;;;11.22;86.80371;95039.78;;;;
2019/10/18 05:46:32;;;;;;;7.7;3.3;;;;;;;11.22;86.80371;95039.78;;;;
2019/10/18 05:47:33;;;;;;;7.7;3.3;;;;;;;11.22;86.80371;95039.78;;;;
2019/10/18 05:48:34;;;;;;;7.7;3.3;;;;;;;11.22;86.80371;95039.78;;;;
2019/10/18 05:49:35;;;;;;;7.7;3.3;;;;;;;11.22;86.80371;95039.78;;;;
2019/10/18 05:50:36;;;;;;;7.7;3.3;;;;;;;11.22;86.80371;95039.78;;;;
2019/10/18 05:51:38;;;;;;;6.2;3.2;;;;;;;11.18;86.81543;95063.87;;;;
2019/10/18 05:52:39;;;;;;;6.2;3.2;;;;;;;11.18;86.81543;95063.87;;;;
2019/10/18 05:53:40;;;;;;;6.2;3.2;;;;;;;11.18;86.81543;95063.87;;;;
2019/10/18 05:54:41;;;;;;;6.2;3.2;;;;;;;11.18;86.81543;95063.87;;;;
2019/10/18 05:55:42;;;;;;;6.2;3.2;;;;;;;11.18;86.81543;95063.87;;;;
2019/10/18 05:56:43;;;;;;;6.2;3.2;;;;;;;11.18;86.81543;95063.87;;;;
2019/10/18 05:57:44;;;;;;;6.2;3.2;;;;;;;11.18;86.81543;95063.87;;;;
2019/10/18 05:58:46;;;;;;;6.2;3.2;;;;;;;11.18;86.81543;95063.87;;;;
2019/10/18 05:59:47;;;;;;;6.2;3.2;;;;;;;11.18;86.81543;95063.87;;;;
2019/10/18 06:00:48;;;;;;;6.2;3.2;;;;;;;11.18;86.81543;95063.87;;;;
2019/10/18 06:01:49;;;;;;;6.2;3.2;;;;;;;11.18;86.81543;95063.87;;;;
2019/10/18 06:02:50;;;;;;;5.15;3.400001;;;;;;;11.24;86.9248;95051.68;;;;